Аэропорт: Ширак. Гюмри

ICAO: UDSG

METAR:
2019/05/26 14:00
UDSG 261400Z 33020G30KT 9000 TS BKN043CB 14/05 Q1018 R02/CLRD70 NOSIG
METAR:
2019/05/26 13:00
TAF 
      AMD UDSG 261323Z 2613/2712 33010KT 9999 FEW040 
      TEMPO 2613/2620 VRB20G30KT -TSRA BKN030CB